createdAt,value
2022-09-28T00:01:19.152Z,9.50
2022-09-28T00:03:49.481Z,9.44
2022-09-28T00:06:22.224Z,9.39
2022-09-28T00:08:50.433Z,9.31
2022-09-28T00:11:20.652Z,9.23
2022-09-28T00:13:51.746Z,9.17
2022-09-28T00:16:25.585Z,9.12
2022-09-28T00:18:54.102Z,9.09
2022-09-28T00:21:25.534Z,9.00
2022-09-28T00:24:15.030Z,8.95
2022-09-28T00:26:54.345Z,8.95
2022-09-28T00:29:27.005Z,8.87
2022-09-28T00:32:02.477Z,8.78
2022-09-28T00:34:38.154Z,8.74
2022-09-28T00:37:08.784Z,8.74
2022-09-28T00:39:38.693Z,8.71
2022-09-28T00:42:18.094Z,8.68
2022-09-28T00:44:54.737Z,8.69
2022-09-28T00:47:54.854Z,8.68
2022-09-28T00:50:34.298Z,8.63
2022-09-28T00:53:21.586Z,8.55
2022-09-28T00:55:57.316Z,8.44
2022-09-28T00:58:31.992Z,8.40
2022-09-28T01:01:00.242Z,8.38
2022-09-28T01:03:29.119Z,8.33
2022-09-28T01:06:02.206Z,8.33
2022-09-28T01:08:34.046Z,8.33
2022-09-28T01:11:02.256Z,8.26
2022-09-28T01:13:41.414Z,8.19
2022-09-28T01:16:38.326Z,8.14
2022-09-28T01:19:59.928Z,8.09
2022-09-28T01:22:41.945Z,8.09
2022-09-28T01:25:50.848Z,8.07
2022-09-28T01:28:23.737Z,8.00
2022-09-28T01:31:09.674Z,8.01
2022-09-28T01:33:51.143Z,7.97
2022-09-28T01:36:27.823Z,7.92
2022-09-28T01:39:07.977Z,7.89
2022-09-28T01:41:40.214Z,7.87
2022-09-28T01:44:16.822Z,7.83
2022-09-28T01:46:49.089Z,7.79
2022-09-28T01:49:27.917Z,7.77
2022-09-28T01:52:04.219Z,7.68
2022-09-28T01:54:40.438Z,7.68
2022-09-28T01:57:18.679Z,7.65
2022-09-28T02:00:01.158Z,7.60
2022-09-28T02:02:37.753Z,7.53
2022-09-28T02:05:15.269Z,7.43
2022-09-28T02:07:51.349Z,7.47
2022-09-28T02:10:29.053Z,7.53
2022-09-28T02:13:04.845Z,7.60
2022-09-28T02:15:56.841Z,7.57
2022-09-28T02:18:25.472Z,7.52
2022-09-28T02:21:06.851Z,7.41
2022-09-28T02:23:39.557Z,7.43
2022-09-28T02:26:13.953Z,7.49
2022-09-28T02:28:41.775Z,7.47
2022-09-28T02:31:09.710Z,7.23
2022-09-28T02:33:42.012Z,7.19
2022-09-28T02:36:10.838Z,7.30
2022-09-28T02:38:39.439Z,7.32
2022-09-28T02:41:38.440Z,7.21
2022-09-28T02:44:42.249Z,7.12
2022-09-28T02:47:49.043Z,7.16
2022-09-28T02:50:43.086Z,7.16
2022-09-28T02:53:32.568Z,7.10
2022-09-28T02:56:47.451Z,7.05
2022-09-28T02:59:36.484Z,7.13
2022-09-28T03:02:25.888Z,7.26
2022-09-28T03:05:26.720Z,7.29
2022-09-28T03:08:01.865Z,7.23
2022-09-28T03:10:44.222Z,7.19
2022-09-28T03:13:13.793Z,7.18
2022-09-28T03:15:46.408Z,7.15
2022-09-28T03:18:16.892Z,7.18
2022-09-28T03:20:48.805Z,7.22
2022-09-28T03:23:24.789Z,7.18
2022-09-28T03:25:53.319Z,7.16
2022-09-28T03:28:21.968Z,7.08
2022-09-28T03:30:50.198Z,7.06
2022-09-28T03:33:19.744Z,7.03
2022-09-28T03:35:51.312Z,7.03
2022-09-28T03:38:19.588Z,7.00
2022-09-28T03:40:56.052Z,6.95
2022-09-28T03:43:25.898Z,6.94
2022-09-28T03:46:00.613Z,6.96
2022-09-28T03:48:34.053Z,6.95
2022-09-28T03:51:09.152Z,6.94
2022-09-28T03:53:37.576Z,6.94
2022-09-28T03:56:09.006Z,6.95
2022-09-28T03:58:36.773Z,6.88
2022-09-28T04:01:09.231Z,6.89
2022-09-28T04:03:39.913Z,6.80
2022-09-28T04:06:07.910Z,6.77
2022-09-28T04:08:36.402Z,6.73
2022-09-28T04:11:04.241Z,6.70
2022-09-28T04:13:32.089Z,6.71
2022-09-28T04:16:01.444Z,6.71
2022-09-28T04:18:33.556Z,6.73
2022-09-28T04:21:21.268Z,6.66
2022-09-28T04:23:53.147Z,6.65
2022-09-28T04:26:25.913Z,6.67
2022-09-28T04:29:13.312Z,6.59
2022-09-28T04:31:48.327Z,6.36
2022-09-28T04:34:20.644Z,6.42
2022-09-28T04:36:49.068Z,6.49
2022-09-28T04:39:19.492Z,6.51
2022-09-28T04:41:50.227Z,6.49
2022-09-28T04:44:18.294Z,6.47
2022-09-28T04:46:47.521Z,6.53
2022-09-28T04:49:37.100Z,6.62
2022-09-28T04:52:20.848Z,6.56
2022-09-28T04:54:50.202Z,6.43
2022-09-28T04:57:18.040Z,6.35
2022-09-28T04:59:45.781Z,6.42
2022-09-28T05:02:15.093Z,6.50
2022-09-28T05:05:01.926Z,6.58
2022-09-28T05:07:59.165Z,6.69
2022-09-28T05:10:26.855Z,6.77
2022-09-28T05:12:54.848Z,6.63
2022-09-28T05:15:22.658Z,6.59
2022-09-28T05:17:53.011Z,6.64
2022-09-28T05:20:25.984Z,6.61
2022-09-28T05:22:53.765Z,6.68
2022-09-28T05:25:21.609Z,6.73
2022-09-28T05:28:03.384Z,6.77
2022-09-28T05:31:09.300Z,6.86
2022-09-28T05:33:56.025Z,6.97
2022-09-28T05:36:27.381Z,7.15
2022-09-28T05:38:55.128Z,7.29
2022-09-28T05:41:22.918Z,7.42
2022-09-28T05:43:52.208Z,7.56
2022-09-28T05:46:21.832Z,7.65
2022-09-28T05:48:52.558Z,7.75
2022-09-28T05:51:21.141Z,7.83
2022-09-28T05:53:49.039Z,7.89
2022-09-28T05:56:17.613Z,7.92
2022-09-28T05:58:46.046Z,7.99
2022-09-28T06:01:14.870Z,8.03
2022-09-28T06:03:45.875Z,8.10
2022-09-28T06:06:13.595Z,8.17
2022-09-28T06:08:46.192Z,8.18
2022-09-28T06:11:33.390Z,8.20
2022-09-28T06:14:06.706Z,8.21
2022-09-28T06:16:35.047Z,8.20
2022-09-28T06:19:02.958Z,8.25
2022-09-28T06:21:39.598Z,8.28
2022-09-28T06:24:08.297Z,8.29
2022-09-28T06:26:37.366Z,8.40
2022-09-28T06:29:06.041Z,8.49
2022-09-28T06:31:34.103Z,8.45
2022-09-28T06:34:02.166Z,8.37
2022-09-28T06:36:31.342Z,8.47
2022-09-28T06:38:59.323Z,8.50
2022-09-28T06:41:27.474Z,8.47
2022-09-28T06:43:56.752Z,8.39
2022-09-28T06:46:43.346Z,8.49
2022-09-28T06:49:30.692Z,8.56
2022-09-28T06:52:18.354Z,8.59
2022-09-28T06:55:09.684Z,8.54
2022-09-28T06:57:43.591Z,8.63
2022-09-28T07:00:13.017Z,8.68
2022-09-28T07:02:42.622Z,8.76
2022-09-28T07:05:30.152Z,8.82
2022-09-28T07:08:28.685Z,8.89
2022-09-28T07:11:07.456Z,8.96
2022-09-28T07:14:03.225Z,9.02
2022-09-28T07:17:00.005Z,9.07
2022-09-28T07:19:20.188Z,9.14
2022-09-28T07:21:58.812Z,9.21
2022-09-28T07:24:30.457Z,9.26
2022-09-28T07:27:16.993Z,9.34
2022-09-28T07:29:56.836Z,9.42
2022-09-28T07:32:37.491Z,9.52
2022-09-28T07:35:20.324Z,9.58
2022-09-28T07:38:00.360Z,9.70
2022-09-28T07:40:48.408Z,9.85
2022-09-28T07:43:20.707Z,10.08
2022-09-28T07:45:53.926Z,10.31
2022-09-28T07:48:22.954Z,10.61
2022-09-28T07:51:10.265Z,10.78
2022-09-28T07:53:54.073Z,10.99
2022-09-28T07:56:45.691Z,11.13
2022-09-28T07:59:29.134Z,11.15
2022-09-28T08:02:28.892Z,11.40
2022-09-28T08:04:58.200Z,11.64
2022-09-28T08:07:27.591Z,11.75
2022-09-28T08:10:05.048Z,11.86
2022-09-28T08:13:04.750Z,11.88
2022-09-28T08:15:53.708Z,11.92
2022-09-28T08:18:41.760Z,11.92
2022-09-28T08:21:28.894Z,11.89
2022-09-28T08:23:56.795Z,11.89
2022-09-28T08:26:24.811Z,11.90
2022-09-28T08:28:53.137Z,12.04
2022-09-28T08:31:39.541Z,12.09
2022-09-28T08:34:30.614Z,12.16
2022-09-28T08:37:17.110Z,12.29
2022-09-28T08:40:04.770Z,12.41
2022-09-28T08:42:45.878Z,12.40
2022-09-28T08:45:28.358Z,12.44
2022-09-28T08:48:52.237Z,12.52
2022-09-28T08:51:54.260Z,12.50
2022-09-28T08:54:56.817Z,12.51
2022-09-28T08:57:45.109Z,12.35
2022-09-28T09:00:32.236Z,12.13
2022-09-28T09:03:06.424Z,12.19
2022-09-28T09:06:18.172Z,12.43
2022-09-28T09:09:23.005Z,12.74
2022-09-28T09:12:13.842Z,12.78
2022-09-28T09:15:22.173Z,12.93
2022-09-28T09:18:20.108Z,12.78
2022-09-28T09:21:04.665Z,12.80
2022-09-28T09:23:56.885Z,12.61
2022-09-28T09:26:46.611Z,12.80
2022-09-28T09:29:53.046Z,12.63
2022-09-28T09:33:24.069Z,12.88
2022-09-28T09:36:47.663Z,13.06
2022-09-28T09:40:09.430Z,13.48
2022-09-28T09:43:17.509Z,13.12
2022-09-28T09:46:19.308Z,13.28
2022-09-28T09:49:15.418Z,13.81
2022-09-28T09:51:58.989Z,14.12
2022-09-28T09:54:39.593Z,14.28
2022-09-28T09:57:15.178Z,14.20
2022-09-28T09:59:49.670Z,14.22
2022-09-28T10:02:39.427Z,14.20
2022-09-28T10:05:25.605Z,13.99
2022-09-28T10:08:08.653Z,13.89
2022-09-28T10:10:49.691Z,13.93
2022-09-28T10:13:19.249Z,13.76
2022-09-28T10:15:48.009Z,13.76
2022-09-28T10:18:35.752Z,14.01
2022-09-28T10:21:16.662Z,14.50
2022-09-28T10:23:58.333Z,14.74
2022-09-28T10:26:37.499Z,15.24
2022-09-28T10:29:15.088Z,15.25
2022-09-28T10:31:52.409Z,15.01
2022-09-28T10:34:35.578Z,15.19
2022-09-28T10:37:11.752Z,15.18
2022-09-28T10:40:35.385Z,14.48
2022-09-28T10:43:26.216Z,14.75
2022-09-28T10:46:21.690Z,14.68
2022-09-28T10:49:04.980Z,14.75
2022-09-28T10:51:52.074Z,14.76
2022-09-28T10:54:37.178Z,14.78
2022-09-28T10:57:28.668Z,14.96
2022-09-28T11:00:07.268Z,15.13
2022-09-28T11:02:44.231Z,15.18
2022-09-28T11:05:24.069Z,14.99
2022-09-28T11:07:56.913Z,15.34
2022-09-28T11:10:32.750Z,15.17
2022-09-28T11:13:09.934Z,15.14
2022-09-28T11:15:43.025Z,15.02
2022-09-28T11:18:24.208Z,15.00
2022-09-28T11:20:52.097Z,15.00
2022-09-28T11:23:31.750Z,14.68
2022-09-28T11:26:08.907Z,14.56
2022-09-28T11:28:41.295Z,14.34
2022-09-28T11:31:14.077Z,14.26
2022-09-28T11:34:57.497Z,14.13
2022-09-28T11:37:35.394Z,14.35
2022-09-28T11:40:28.672Z,14.20
2022-09-28T11:43:52.977Z,14.13
2022-09-28T11:46:45.498Z,14.04
2022-09-28T11:49:27.806Z,13.90
2022-09-28T11:52:02.468Z,13.82
2022-09-28T11:54:48.215Z,14.04
2022-09-28T11:57:23.861Z,14.17
2022-09-28T12:00:02.009Z,14.32
2022-09-28T12:02:42.860Z,14.33
2022-09-28T12:05:24.959Z,14.26
2022-09-28T12:08:04.462Z,14.21
2022-09-28T12:11:24.074Z,14.17
2022-09-28T12:14:20.345Z,14.50
2022-09-28T12:17:11.221Z,14.51
2022-09-28T12:19:49.449Z,14.52
2022-09-28T12:22:30.944Z,14.63
2022-09-28T12:25:01.952Z,14.57
2022-09-28T12:27:45.049Z,14.57
2022-09-28T12:30:20.345Z,14.33
2022-09-28T12:33:12.269Z,14.29
2022-09-28T12:35:59.162Z,14.15
2022-09-28T12:39:14.856Z,14.30
2022-09-28T12:41:59.725Z,14.21
2022-09-28T12:44:52.937Z,14.08
2022-09-28T12:48:17.220Z,14.40
2022-09-28T12:51:06.293Z,14.70
2022-09-28T12:54:01.927Z,14.61
2022-09-28T12:57:12.278Z,14.56
2022-09-28T13:00:04.498Z,14.24
2022-09-28T13:03:32.566Z,13.98
2022-09-28T13:06:32.591Z,13.75
2022-09-28T13:09:23.489Z,13.79
2022-09-28T13:12:14.718Z,13.79
2022-09-28T13:15:18.306Z,13.51
2022-09-28T13:18:07.587Z,13.52
2022-09-28T13:21:00.090Z,13.43
2022-09-28T13:23:41.292Z,13.66
2022-09-28T13:26:29.650Z,13.72
2022-09-28T13:29:14.189Z,13.45
2022-09-28T13:31:53.723Z,13.75
2022-09-28T13:34:27.705Z,13.42
2022-09-28T13:37:14.065Z,13.14
2022-09-28T13:39:44.794Z,13.11
2022-09-28T13:42:29.278Z,13.06
2022-09-28T13:45:02.756Z,12.99
2022-09-28T13:47:52.406Z,13.00
2022-09-28T13:50:53.320Z,13.04
2022-09-28T13:53:30.787Z,13.09
2022-09-28T13:56:42.145Z,13.18
2022-09-28T13:59:21.898Z,13.17
2022-09-28T14:02:27.462Z,13.23
2022-09-28T14:05:06.577Z,13.18
2022-09-28T14:07:34.369Z,13.13
2022-09-28T14:10:49.737Z,12.60
2022-09-28T14:13:45.444Z,12.52
2022-09-28T14:16:23.673Z,12.57
2022-09-28T14:18:58.597Z,12.23
2022-09-28T14:22:18.776Z,11.78
2022-09-28T14:25:15.164Z,11.09
2022-09-28T14:28:34.280Z,10.84
2022-09-28T14:31:14.154Z,10.40
2022-09-28T14:33:42.937Z,10.32
2022-09-28T14:36:46.321Z,10.38
2022-09-28T14:39:51.875Z,10.32
2022-09-28T14:42:23.974Z,10.23
2022-09-28T14:45:05.231Z,10.27
2022-09-28T14:47:44.106Z,10.33
2022-09-28T14:50:27.596Z,10.19
2022-09-28T14:53:05.046Z,10.19
2022-09-28T14:55:57.511Z,10.07
2022-09-28T14:58:29.885Z,10.04
2022-09-28T15:01:20.039Z,10.04
2022-09-28T15:03:53.259Z,10.03
2022-09-28T15:06:25.641Z,10.12
2022-09-28T15:08:53.341Z,10.10
2022-09-28T15:11:25.177Z,10.34
2022-09-28T15:14:07.246Z,10.34
2022-09-28T15:16:34.993Z,10.30
2022-09-28T15:19:35.299Z,9.90
2022-09-28T15:22:03.461Z,10.12
2022-09-28T15:24:34.733Z,10.02
2022-09-28T15:27:15.079Z,9.85
2022-09-28T15:29:58.452Z,9.62
2022-09-28T15:32:29.580Z,9.71
2022-09-28T15:35:11.682Z,9.77
2022-09-28T15:37:40.679Z,9.76
2022-09-28T15:40:17.288Z,9.78
2022-09-28T15:42:46.134Z,9.87
2022-09-28T15:45:13.957Z,9.84
2022-09-28T15:47:44.881Z,9.75
2022-09-28T15:50:24.274Z,9.76
2022-09-28T15:53:05.442Z,9.85
2022-09-28T15:55:42.327Z,9.86
2022-09-28T15:58:22.563Z,9.91
2022-09-28T16:01:25.936Z,9.83
2022-09-28T16:03:54.293Z,10.00
2022-09-28T16:06:22.446Z,9.86
2022-09-28T16:08:50.190Z,9.68
2022-09-28T16:11:30.037Z,9.68
2022-09-28T16:14:23.802Z,9.40
2022-09-28T16:16:53.181Z,9.34
2022-09-28T16:19:31.973Z,9.46
2022-09-28T16:22:06.424Z,9.66
2022-09-28T16:24:38.410Z,9.65
2022-09-28T16:27:25.229Z,9.63
2022-09-28T16:30:14.771Z,9.60
2022-09-28T16:32:56.494Z,9.61
2022-09-28T16:35:29.831Z,9.60
2022-09-28T16:38:03.530Z,9.57
2022-09-28T16:40:32.843Z,9.58
2022-09-28T16:43:05.509Z,9.48
2022-09-28T16:45:35.240Z,9.35
2022-09-28T16:48:04.286Z,9.22
2022-09-28T16:50:32.065Z,9.17
2022-09-28T16:53:35.873Z,9.33
2022-09-28T16:56:05.035Z,9.36
2022-09-28T16:58:33.685Z,9.18
2022-09-28T17:01:01.554Z,9.15
2022-09-28T17:03:29.763Z,9.35
2022-09-28T17:05:57.751Z,9.42
2022-09-28T17:08:25.855Z,9.48
2022-09-28T17:11:22.754Z,9.45
2022-09-28T17:13:49.917Z,9.44
2022-09-28T17:16:32.701Z,9.50
2022-09-28T17:19:18.976Z,9.57
2022-09-28T17:21:47.414Z,9.61
2022-09-28T17:24:15.444Z,9.54
2022-09-28T17:26:45.553Z,9.27
2022-09-28T17:29:14.946Z,9.16
2022-09-28T17:31:44.282Z,9.26
2022-09-28T17:34:16.780Z,9.26
2022-09-28T17:36:45.231Z,9.27
2022-09-28T17:39:19.108Z,9.28
2022-09-28T17:41:47.015Z,9.27
2022-09-28T17:44:15.945Z,9.29
2022-09-28T17:46:48.554Z,9.30
2022-09-28T17:49:18.767Z,9.28
2022-09-28T17:51:47.102Z,9.28
2022-09-28T17:54:16.924Z,9.30
2022-09-28T17:56:46.124Z,9.29
2022-09-28T17:59:18.932Z,9.34
2022-09-28T18:01:48.242Z,9.34
2022-09-28T18:04:33.758Z,9.30
2022-09-28T18:07:05.317Z,9.30
2022-09-28T18:09:33.098Z,9.30
2022-09-28T18:12:04.466Z,9.32
2022-09-28T18:14:32.497Z,9.32
2022-09-28T18:17:00.185Z,9.25
2022-09-28T18:19:31.920Z,9.28
2022-09-28T18:22:01.375Z,9.24
2022-09-28T18:24:29.858Z,9.27
2022-09-28T18:26:57.732Z,9.29
2022-09-28T18:29:26.711Z,9.30
2022-09-28T18:31:55.886Z,9.25
2022-09-28T18:34:23.695Z,9.26
2022-09-28T18:36:51.436Z,9.24
2022-09-28T18:39:19.282Z,9.23
2022-09-28T18:41:47.027Z,9.25
2022-09-28T18:44:14.856Z,9.26
2022-09-28T18:46:42.868Z,9.21
2022-09-28T18:49:11.106Z,9.12
2022-09-28T18:51:39.077Z,8.97
2022-09-28T18:54:07.643Z,9.03
2022-09-28T18:56:38.185Z,9.09
2022-09-28T18:59:11.903Z,9.16
2022-09-28T19:01:41.889Z,9.19
2022-09-28T19:04:11.389Z,9.17
2022-09-28T19:06:42.417Z,9.22
2022-09-28T19:09:10.915Z,9.22
2022-09-28T19:11:38.654Z,9.32
2022-09-28T19:14:06.710Z,9.20
2022-09-28T19:16:34.549Z,8.95
2022-09-28T19:19:03.233Z,8.78
2022-09-28T19:21:31.650Z,8.71
2022-09-28T19:24:03.981Z,8.71
2022-09-28T19:26:33.377Z,8.82
2022-09-28T19:29:02.779Z,8.88
2022-09-28T19:31:31.686Z,8.72
2022-09-28T19:33:59.597Z,8.76
2022-09-28T19:36:28.795Z,8.73
2022-09-28T19:39:02.926Z,8.75
2022-09-28T19:41:45.543Z,8.80
2022-09-28T19:44:29.856Z,8.85
2022-09-28T19:47:06.749Z,8.83
2022-09-28T19:49:38.988Z,8.78
2022-09-28T19:52:16.358Z,8.86
2022-09-28T19:54:55.663Z,8.91
2022-09-28T19:57:32.491Z,8.82
2022-09-28T20:00:03.427Z,8.83
2022-09-28T20:02:35.765Z,8.88
2022-09-28T20:05:03.784Z,8.98
2022-09-28T20:07:33.347Z,8.99
2022-09-28T20:10:01.118Z,8.99
2022-09-28T20:12:28.903Z,8.79
2022-09-28T20:14:56.596Z,8.77
2022-09-28T20:17:24.394Z,8.74
2022-09-28T20:19:52.540Z,8.83
2022-09-28T20:22:21.152Z,8.93
2022-09-28T20:24:49.059Z,8.95
2022-09-28T20:27:16.772Z,8.92
2022-09-28T20:29:44.460Z,8.95
2022-09-28T20:32:12.210Z,9.03
2022-09-28T20:34:39.947Z,9.09
2022-09-28T20:37:07.633Z,9.06
2022-09-28T20:39:35.479Z,9.07
2022-09-28T20:42:03.246Z,9.00
2022-09-28T20:44:31.275Z,8.92
2022-09-28T20:46:59.498Z,8.86
2022-09-28T20:49:28.176Z,8.94
2022-09-28T20:51:55.887Z,9.01
2022-09-28T20:54:23.707Z,9.01
2022-09-28T20:56:51.591Z,8.94
2022-09-28T20:59:22.793Z,8.98
2022-09-28T21:01:51.122Z,8.98
2022-09-28T21:04:19.735Z,8.89
2022-09-28T21:06:47.519Z,8.93
2022-09-28T21:09:15.233Z,8.91
2022-09-28T21:11:42.949Z,8.85
2022-09-28T21:14:10.884Z,8.71
2022-09-28T21:16:39.090Z,8.84
2022-09-28T21:19:06.974Z,8.73
2022-09-28T21:21:34.921Z,8.80
2022-09-28T21:24:03.492Z,8.89
2022-09-28T21:26:32.838Z,8.90
2022-09-28T21:29:06.812Z,8.88
2022-09-28T21:31:43.013Z,8.92
2022-09-28T21:34:20.511Z,8.88
2022-09-28T21:36:51.343Z,8.90
2022-09-28T21:39:20.103Z,8.88
2022-09-28T21:41:48.009Z,8.86
2022-09-28T21:44:15.749Z,8.84
2022-09-28T21:46:43.571Z,8.85
2022-09-28T21:49:12.631Z,8.88
2022-09-28T21:51:40.496Z,8.89
2022-09-28T21:54:08.585Z,8.85
2022-09-28T21:56:36.265Z,8.85
2022-09-28T21:59:04.051Z,8.82
2022-09-28T22:01:32.255Z,8.79
2022-09-28T22:04:00.244Z,8.78
2022-09-28T22:06:28.306Z,8.81
2022-09-28T22:08:57.311Z,8.80
2022-09-28T22:11:28.156Z,8.70
2022-09-28T22:13:59.919Z,8.70
2022-09-28T22:16:31.046Z,8.72
2022-09-28T22:18:59.880Z,8.76
2022-09-28T22:21:32.559Z,8.83
2022-09-28T22:24:04.103Z,8.80
2022-09-28T22:26:34.555Z,8.73
2022-09-28T22:29:06.793Z,8.69
2022-09-28T22:31:38.616Z,8.66
2022-09-28T22:34:07.280Z,8.67
2022-09-28T22:36:35.820Z,8.69
2022-09-28T22:39:04.673Z,8.72
2022-09-28T22:41:32.577Z,8.67
2022-09-28T22:44:00.626Z,8.68
2022-09-28T22:46:32.062Z,8.75
2022-09-28T22:49:00.452Z,8.76
2022-09-28T22:51:30.675Z,8.72
2022-09-28T22:53:58.888Z,8.68
2022-09-28T22:56:26.882Z,8.69
2022-09-28T22:58:54.905Z,8.73
2022-09-28T23:01:27.020Z,8.75
2022-09-28T23:03:57.196Z,8.77
2022-09-28T23:06:28.311Z,8.79
2022-09-28T23:08:56.924Z,8.80
2022-09-28T23:11:24.919Z,8.79
2022-09-28T23:13:55.846Z,8.75
2022-09-28T23:16:25.830Z,8.77
2022-09-28T23:18:55.273Z,8.78
2022-09-28T23:21:27.688Z,8.72
2022-09-28T23:23:59.617Z,8.71
2022-09-28T23:26:31.449Z,8.80
2022-09-28T23:28:59.794Z,8.77
2022-09-28T23:31:33.061Z,8.77
2022-09-28T23:34:04.463Z,8.74
2022-09-28T23:36:33.622Z,8.73
2022-09-28T23:39:01.653Z,8.85
2022-09-28T23:41:29.587Z,8.86
2022-09-28T23:43:57.389Z,8.76
2022-09-28T23:46:25.365Z,8.77
2022-09-28T23:48:53.341Z,8.86
2022-09-28T23:51:21.234Z,8.92
2022-09-28T23:53:49.122Z,8.93
2022-09-28T23:56:17.040Z,8.90
2022-09-28T23:58:44.972Z,8.83
